createdAt,value
2023-05-14T00:04:32.578Z,15.05
2023-05-14T00:07:17.459Z,14.70
2023-05-14T00:10:02.164Z,15.48
2023-05-14T00:12:47.241Z,14.40
2023-05-14T00:15:34.192Z,15.68
2023-05-14T00:18:19.716Z,14.15
2023-05-14T00:21:04.644Z,14.23
2023-05-14T00:26:33.458Z,14.13
2023-05-14T00:29:18.021Z,14.45
2023-05-14T00:32:03.118Z,14.00
2023-05-14T00:34:47.699Z,15.18
2023-05-14T00:37:32.859Z,14.25
2023-05-14T00:40:17.655Z,14.70
2023-05-14T00:43:03.091Z,15.73
2023-05-14T00:45:53.087Z,14.02
2023-05-14T00:48:37.891Z,13.30
2023-05-14T00:51:23.287Z,13.57
2023-05-14T00:54:08.363Z,13.73
2023-05-14T00:56:54.097Z,15.20
2023-05-14T00:59:41.142Z,15.05
2023-05-14T01:02:25.937Z,14.90
2023-05-14T01:08:07.010Z,15.68
2023-05-14T01:10:59.889Z,15.15
2023-05-14T01:14:07.743Z,15.75
2023-05-14T01:16:57.179Z,14.90
2023-05-14T01:19:46.795Z,15.48
2023-05-14T01:22:31.759Z,15.32
2023-05-14T01:25:16.602Z,17.13
2023-05-14T01:28:28.338Z,16.85
2023-05-14T01:31:19.045Z,14.88
2023-05-14T01:34:06.075Z,15.15
2023-05-14T01:36:52.760Z,15.32
2023-05-14T01:39:38.986Z,15.68
2023-05-14T01:42:25.304Z,15.20
2023-05-14T01:45:10.380Z,15.55
2023-05-14T01:47:55.480Z,17.10
2023-05-14T01:50:40.748Z,16.65
2023-05-14T01:53:25.705Z,17.23
2023-05-14T01:56:10.894Z,17.20
2023-05-14T01:58:56.199Z,15.20
2023-05-14T02:01:41.405Z,15.02
2023-05-14T02:04:26.378Z,15.55
2023-05-14T02:07:11.185Z,15.27
2023-05-14T02:12:40.283Z,15.05
2023-05-14T02:18:09.859Z,13.63
2023-05-14T02:20:55.170Z,15.02
2023-05-14T02:23:41.961Z,14.63
2023-05-14T02:26:27.389Z,15.32
2023-05-14T02:29:13.029Z,14.98
2023-05-14T02:31:57.900Z,14.05
2023-05-14T02:34:42.492Z,16.08
2023-05-14T02:40:11.735Z,13.27
2023-05-14T02:42:56.537Z,14.00
2023-05-14T02:45:41.021Z,13.57
2023-05-14T02:48:25.908Z,14.80
2023-05-14T02:51:11.023Z,14.77
2023-05-14T02:53:55.590Z,14.30
2023-05-14T02:56:40.203Z,13.70
2023-05-14T02:59:24.693Z,15.45
2023-05-14T03:02:09.904Z,14.73
2023-05-14T03:04:55.397Z,14.88
2023-05-14T03:10:24.522Z,14.48
2023-05-14T03:13:09.054Z,14.25
2023-05-14T03:15:54.268Z,14.48
2023-05-14T03:18:39.106Z,15.45
2023-05-14T03:21:24.284Z,14.07
2023-05-14T03:24:08.797Z,12.40
2023-05-14T03:26:53.840Z,12.45
2023-05-14T03:29:38.484Z,12.35
2023-05-14T03:32:22.944Z,12.95
2023-05-14T03:35:08.263Z,13.05
2023-05-14T03:37:52.913Z,11.82
2023-05-14T03:40:38.081Z,11.85
2023-05-14T03:43:22.724Z,11.02
2023-05-14T03:46:08.189Z,12.43
2023-05-14T03:48:52.914Z,11.82
2023-05-14T03:51:37.903Z,11.32
2023-05-14T03:54:23.496Z,11.02
2023-05-14T03:57:08.252Z,10.90
2023-05-14T03:59:52.866Z,13.55
2023-05-14T04:02:37.509Z,17.50
2023-05-14T04:05:22.375Z,18.10
2023-05-14T04:08:07.281Z,15.88
2023-05-14T04:10:52.059Z,13.50
2023-05-14T04:13:36.578Z,11.70
2023-05-14T04:16:21.439Z,11.93
2023-05-14T04:19:06.783Z,11.35
2023-05-14T04:21:51.525Z,11.40
2023-05-14T04:24:36.260Z,10.82
2023-05-14T04:27:21.668Z,10.85
2023-05-14T04:30:07.749Z,11.15
2023-05-14T04:32:52.899Z,11.60
2023-05-14T04:35:37.671Z,11.35
2023-05-14T04:38:22.626Z,12.07
2023-05-14T04:41:07.387Z,12.88
2023-05-14T04:43:55.408Z,13.32
2023-05-14T04:46:40.297Z,12.50
2023-05-14T04:49:25.344Z,13.43
2023-05-14T04:52:10.166Z,14.05
2023-05-14T04:54:56.201Z,13.63
2023-05-14T04:57:41.248Z,14.32
2023-05-14T05:00:26.418Z,13.80
2023-05-14T05:03:12.199Z,14.57
2023-05-14T05:05:56.853Z,14.50
2023-05-14T05:08:41.762Z,14.77
2023-05-14T05:11:26.561Z,14.05
2023-05-14T05:14:11.078Z,13.07
2023-05-14T05:16:56.057Z,13.52
2023-05-14T05:19:44.238Z,12.23
2023-05-14T05:22:29.231Z,12.35
2023-05-14T05:25:13.834Z,10.95
2023-05-14T05:27:58.744Z,10.32
2023-05-14T05:30:44.575Z,9.93
2023-05-14T05:33:29.378Z,8.65
2023-05-14T05:36:14.443Z,9.35
2023-05-14T05:38:59.205Z,8.43
2023-05-14T05:41:43.871Z,7.60
2023-05-14T05:44:28.324Z,7.20
2023-05-14T05:47:12.795Z,6.90
2023-05-14T05:49:57.163Z,6.15
2023-05-14T05:52:41.801Z,6.20
2023-05-14T05:55:28.069Z,6.10
2023-05-14T05:58:15.106Z,5.80
2023-05-14T06:01:00.585Z,5.25
2023-05-14T06:03:46.450Z,5.03
2023-05-14T06:06:33.094Z,4.68
2023-05-14T06:09:18.049Z,4.32
2023-05-14T06:12:03.166Z,4.82
2023-05-14T06:14:48.138Z,4.85
2023-05-14T06:17:33.142Z,4.43
2023-05-14T06:20:18.630Z,5.03
2023-05-14T06:23:03.127Z,4.53
2023-05-14T06:25:50.762Z,5.30
2023-05-14T06:28:35.730Z,4.70
2023-05-14T06:31:20.880Z,5.20
2023-05-14T06:34:05.781Z,5.03
2023-05-14T06:36:50.255Z,4.70
2023-05-14T06:39:38.710Z,4.45
2023-05-14T06:42:23.455Z,4.60
2023-05-14T06:45:08.467Z,4.43
2023-05-14T06:47:53.367Z,4.13
2023-05-14T06:50:38.005Z,4.00
2023-05-14T06:53:22.620Z,4.00
2023-05-14T06:56:07.596Z,3.95
2023-05-14T06:58:52.108Z,3.90
2023-05-14T07:01:36.905Z,3.50
2023-05-14T07:04:21.401Z,3.45
2023-05-14T07:07:06.431Z,3.40
2023-05-14T07:09:51.275Z,3.35
2023-05-14T07:12:36.003Z,2.95
2023-05-14T07:15:20.899Z,3.10
2023-05-14T07:18:05.926Z,3.33
2023-05-14T07:20:50.341Z,3.13
2023-05-14T07:23:36.447Z,3.33
2023-05-14T07:26:23.697Z,2.90
2023-05-14T07:29:08.518Z,2.60
2023-05-14T07:31:52.849Z,2.40
2023-05-14T07:34:37.309Z,2.70
2023-05-14T07:37:23.656Z,2.70
2023-05-14T07:40:08.974Z,2.58
2023-05-14T07:42:53.583Z,2.60
2023-05-14T07:45:40.953Z,2.60
2023-05-14T07:48:25.733Z,2.63
2023-05-14T07:51:11.152Z,3.08
2023-05-14T07:53:55.623Z,3.00
2023-05-14T07:56:40.640Z,2.55
2023-05-14T07:59:25.487Z,2.90
2023-05-14T08:02:12.204Z,2.97
2023-05-14T08:04:56.740Z,2.92
2023-05-14T08:07:40.886Z,2.78
2023-05-14T08:10:25.921Z,2.60
2023-05-14T08:13:10.967Z,2.72
2023-05-14T08:15:55.858Z,2.80
2023-05-14T08:18:40.779Z,2.53
2023-05-14T08:21:25.713Z,2.30
2023-05-14T08:24:10.717Z,2.40
2023-05-14T08:26:55.581Z,2.47
2023-05-14T08:29:40.858Z,2.42
2023-05-14T08:32:25.779Z,2.78
2023-05-14T08:35:10.853Z,2.42
2023-05-14T08:37:56.524Z,2.58
2023-05-14T08:40:41.792Z,2.60
2023-05-14T08:43:43.873Z,2.45
2023-05-14T08:46:30.407Z,2.47
2023-05-14T08:49:28.061Z,2.40
2023-05-14T08:52:12.959Z,2.22
2023-05-14T08:55:00.827Z,2.28
2023-05-14T08:57:45.933Z,2.13
2023-05-14T09:00:30.758Z,2.10
2023-05-14T09:03:17.722Z,2.30
2023-05-14T09:06:04.192Z,2.10
2023-05-14T09:08:49.178Z,2.10
2023-05-14T09:11:34.003Z,2.33
2023-05-14T09:14:19.770Z,2.00
2023-05-14T09:17:04.717Z,2.33
2023-05-14T09:19:52.307Z,2.20
2023-05-14T09:22:38.184Z,2.22
2023-05-14T09:25:27.273Z,2.33
2023-05-14T09:28:12.150Z,2.47
2023-05-14T09:30:57.095Z,2.60
2023-05-14T09:33:41.604Z,2.22
2023-05-14T09:36:26.686Z,2.42
2023-05-14T09:39:11.710Z,2.65
2023-05-14T09:41:56.360Z,2.60
2023-05-14T09:44:41.444Z,2.08
2023-05-14T09:47:26.347Z,2.22
2023-05-14T09:50:11.115Z,2.17
2023-05-14T09:52:55.568Z,3.00
2023-05-14T09:55:41.049Z,2.53
2023-05-14T09:58:26.007Z,2.13
2023-05-14T10:01:11.306Z,2.17
2023-05-14T10:03:56.628Z,2.10
2023-05-14T10:06:43.280Z,2.40
2023-05-14T10:09:29.212Z,2.50
2023-05-14T10:12:19.610Z,2.40
2023-05-14T10:15:13.148Z,2.40
2023-05-14T10:18:01.110Z,2.25
2023-05-14T10:21:13.753Z,2.00
2023-05-14T10:23:59.697Z,2.20
2023-05-14T10:26:44.861Z,1.80
2023-05-14T10:29:37.667Z,2.20
2023-05-14T10:32:25.104Z,2.33
2023-05-14T10:35:19.615Z,2.35
2023-05-14T10:38:08.211Z,2.35
2023-05-14T10:41:09.319Z,2.22
2023-05-14T10:43:56.918Z,2.00
2023-05-14T10:46:41.842Z,1.85
2023-05-14T10:49:42.400Z,2.00
2023-05-14T10:52:28.981Z,2.00
2023-05-14T10:55:15.780Z,1.92
2023-05-14T10:58:03.895Z,1.92
2023-05-14T11:00:53.720Z,2.20
2023-05-14T11:06:28.925Z,2.20
2023-05-14T11:09:16.991Z,1.85
2023-05-14T11:12:01.832Z,1.80
2023-05-14T11:14:46.924Z,1.73
2023-05-14T11:17:32.033Z,1.70
2023-05-14T11:20:17.973Z,1.95
2023-05-14T11:23:02.868Z,1.92
2023-05-14T11:25:47.588Z,1.70
2023-05-14T11:28:32.169Z,2.25
2023-05-14T11:31:17.006Z,1.88
2023-05-14T11:34:03.572Z,1.83
2023-05-14T11:36:48.713Z,1.60
2023-05-14T11:39:35.264Z,1.80
2023-05-14T11:42:21.681Z,1.70
2023-05-14T11:45:10.550Z,1.83
2023-05-14T11:47:55.509Z,1.80
2023-05-14T11:50:44.813Z,1.77
2023-05-14T11:53:30.265Z,1.90
2023-05-14T11:56:15.336Z,2.10
2023-05-14T11:59:00.153Z,2.33
2023-05-14T12:01:46.184Z,2.20
2023-05-14T12:04:31.265Z,2.65
2023-05-14T12:07:16.143Z,2.47
2023-05-14T12:10:02.704Z,2.10
2023-05-14T12:12:48.312Z,2.05
2023-05-14T12:15:32.897Z,1.90
2023-05-14T12:18:24.205Z,1.92
2023-05-14T12:21:11.367Z,2.47
2023-05-14T12:24:00.249Z,2.10
2023-05-14T12:26:50.069Z,1.83
2023-05-14T12:29:37.339Z,2.00
2023-05-14T12:32:25.244Z,2.67
2023-05-14T12:35:10.230Z,2.40
2023-05-14T12:37:55.031Z,2.25
2023-05-14T12:40:40.114Z,2.20
2023-05-14T12:43:29.320Z,2.35
2023-05-14T12:46:14.066Z,2.40
2023-05-14T12:48:59.486Z,2.75
2023-05-14T12:51:43.957Z,2.50
2023-05-14T12:54:28.532Z,2.50
2023-05-14T12:57:13.470Z,2.55
2023-05-14T12:59:58.331Z,2.72
2023-05-14T13:02:43.964Z,2.60
2023-05-14T13:05:29.034Z,2.42
2023-05-14T13:08:17.224Z,2.63
2023-05-14T13:11:01.868Z,2.58
2023-05-14T13:13:46.361Z,2.92
2023-05-14T13:16:30.969Z,2.97
2023-05-14T13:19:16.031Z,2.92
2023-05-14T13:22:00.704Z,2.80
2023-05-14T13:24:45.749Z,2.80
2023-05-14T13:27:30.255Z,2.50
2023-05-14T13:30:16.836Z,2.70
2023-05-14T13:33:01.948Z,2.20
2023-05-14T13:35:46.625Z,2.40
2023-05-14T13:38:31.143Z,2.53
2023-05-14T13:41:15.946Z,2.30
2023-05-14T13:44:00.427Z,2.00
2023-05-14T13:46:45.082Z,2.05
2023-05-14T13:49:29.998Z,1.95
2023-05-14T13:52:14.441Z,2.05
2023-05-14T13:54:58.959Z,2.10
2023-05-14T13:57:43.580Z,2.10
2023-05-14T14:00:28.356Z,2.03
2023-05-14T14:03:12.808Z,2.17
2023-05-14T14:05:57.448Z,1.98
2023-05-14T14:08:42.556Z,2.00
2023-05-14T14:11:27.508Z,2.08
2023-05-14T14:14:12.559Z,2.70
2023-05-14T14:16:57.280Z,2.13
2023-05-14T14:19:41.934Z,2.10
2023-05-14T14:22:28.248Z,1.90
2023-05-14T14:25:13.741Z,1.98
2023-05-14T14:27:58.494Z,1.88
2023-05-14T14:30:43.256Z,1.90
2023-05-14T14:33:28.108Z,2.08
2023-05-14T14:36:12.906Z,2.20
2023-05-14T14:38:57.831Z,2.03
2023-05-14T14:41:43.727Z,2.10
2023-05-14T14:44:28.698Z,2.13
2023-05-14T14:47:13.300Z,2.10
2023-05-14T14:49:57.781Z,1.90
2023-05-14T14:52:45.478Z,2.00
2023-05-14T14:55:30.850Z,2.00
2023-05-14T14:58:16.041Z,2.10
2023-05-14T15:01:01.290Z,1.80
2023-05-14T15:03:47.679Z,1.77
2023-05-14T15:06:32.788Z,2.35
2023-05-14T15:09:17.224Z,2.10
2023-05-14T15:12:02.583Z,2.00
2023-05-14T15:14:47.323Z,2.03
2023-05-14T15:17:31.886Z,2.20
2023-05-14T15:20:16.715Z,2.47
2023-05-14T15:23:01.943Z,2.10
2023-05-14T15:25:46.510Z,2.13
2023-05-14T15:28:31.294Z,2.10
2023-05-14T15:31:15.919Z,2.05
2023-05-14T15:34:01.134Z,2.13
2023-05-14T15:36:46.040Z,2.25
2023-05-14T15:39:30.869Z,2.22
2023-05-14T15:42:15.679Z,1.95
2023-05-14T15:45:00.523Z,2.10
2023-05-14T15:47:45.470Z,4.00
2023-05-14T15:50:30.171Z,4.70
2023-05-14T15:53:15.296Z,4.13
2023-05-14T15:56:00.250Z,3.33
2023-05-14T15:58:44.767Z,2.80
2023-05-14T16:01:29.788Z,2.60
2023-05-14T16:04:14.159Z,2.20
2023-05-14T16:07:03.628Z,2.38
2023-05-14T16:09:48.263Z,2.30
2023-05-14T16:12:33.728Z,2.20
2023-05-14T16:15:18.356Z,2.40
2023-05-14T16:18:03.393Z,2.40
2023-05-14T16:20:48.142Z,2.17
2023-05-14T16:23:32.738Z,2.10
2023-05-14T16:26:17.218Z,1.98
2023-05-14T16:29:02.141Z,1.80
2023-05-14T16:31:46.679Z,1.98
2023-05-14T16:34:31.802Z,2.10
2023-05-14T16:37:19.138Z,2.20
2023-05-14T16:40:04.354Z,1.80
2023-05-14T16:42:49.404Z,1.90
2023-05-14T16:45:36.604Z,2.10
2023-05-14T16:48:23.139Z,2.03
2023-05-14T16:51:09.055Z,2.05
2023-05-14T16:53:55.500Z,2.10
2023-05-14T16:56:41.435Z,2.08
